• Join FlightAware (Why Join?)
  • Login
  • US Flag 
06:50AM EDT


 

Airport Tracker/Info


-or-


 

Live Flight TrackerFlight Track Log ✈ EJM826 ✈ 30-Jul-2013 ✈ KMFR - KCMA

Flight Track Log - Related Links

Times and Time Zones

All times are in EDT time to prevent confusion due to time zone crossing. See the EJM826 flight status page for this flight to view local times or setup timezone preferences in your user account.

Time Position Orientation Groundspeed Altitude Reporting Facility
EDT Latitude Longitude Course Direction KTS MPH feet Rate Location/Type
12:58PM 42.4819 -122.7017 105° East 233 268 10,200  Level Seattle Center
12:59PM 42.4194 -122.6631 155° Southeast 251 289 11,300 1,680 Climbing Seattle Center
01:00PM 42.2769 -122.3974 114° Southeast  Level FlightAware Approximate
01:00PM 42.3486 -122.6181 155° Southeast 278 320 13,700  Level Seattle Center
01:01PM 42.2317 -122.2701 100° East  Level FlightAware Approximate
01:01PM 42.2772 -122.5708 154° Southeast 286 329 15,200  Level Seattle Center
01:02PM 42.2134 -122.1305 103° East  Level FlightAware Approximate
01:02PM 42.1953 -122.5206 156° South 300 345 17,300  Level Seattle Center
01:03PM 42.1886 -121.9928 105° East  Level FlightAware Approximate
01:03PM 42.1278 -122.4747 153° Southeast 312 359 18,500  Level Seattle Center
01:04PM 42.0461 -122.4289 157° South 318 366 20,100 1,500 Climbing Seattle Center
01:05PM 41.9558 -122.3969 165° South 330 380 21,600 1,800 Climbing Seattle Center
01:06PM 41.8528 -122.3614 166° South 321 369 23,800 1,860 Climbing Seattle Center
01:07PM 41.7886 -122.3369 164° South 333 383 24,900 1,260 Climbing Oakland Center
01:08PM 41.6964 -122.3019 164° South 342 394 26,100 1,140 Climbing Oakland Center
01:09PM 41.6000 -122.2653 164° South 355 409 27,300 1,140 Climbing Oakland Center
01:10PM 41.5036 -122.2242 162° South 360 414 28,500 1,140 Climbing Oakland Center
01:11PM 41.4050 -122.1914 166° South 365 420 29,700 1,020 Climbing Oakland Center
01:12PM 41.3053 -122.1528 164° South 372 428 30,700 960 Climbing Oakland Center
01:13PM 41.1589 -122.0964 164° South 386 444 32,000 1,020 Climbing Seattle Center
01:14PM 41.0978 -122.0725 164° South 389 448 32,800 1,440 Climbing Oakland Center
01:15PM 40.9767 -122.0206 162° South 381 438 34,600 1,680 Climbing Oakland Center
01:16PM 40.8772 -121.9794 163° South 374 430 36,300 2,040 Climbing Oakland Center
01:17PM 40.7872 -121.9392 161° South 347 399 38,800 1,260 Climbing Oakland Center
01:18PM 40.7033 -121.9067 164° South 322 371 39,000 60 Climbing Oakland Center
01:19PM 40.6114 -121.8697 163° South 335 386 39,000  Level Oakland Center
01:20PM 40.5142 -121.8286 162° South 356 410 39,000  Level Oakland Center
01:21PM 40.4111 -121.7856 162° South 376 433 39,000  Level Oakland Center
01:22PM 40.3031 -121.7419 163° South 395 455 39,000  Level Oakland Center
01:23PM 40.1911 -121.6961 163° South 409 471 39,000  Level Oakland Center
01:24PM 40.0781 -121.6503 163° South 416 479 39,000  Level Oakland Center
01:25PM 39.9653 -121.6058 163° South 419 482 39,000  Level Oakland Center
01:26PM 39.8314 -121.5531 163° South 419 482 39,000  Level Oakland Center
01:27PM 39.7183 -121.5081 163° South 421 484 39,000  Level Oakland Center
01:28PM 39.6042 -121.4644 164° South 425 489 39,000  Level Oakland Center
01:29PM 39.4903 -121.4200 163° South 427 491 39,000  Level Oakland Center
01:30PM 39.3808 -121.3733 162° South 422 486 39,000  Level Oakland Center
01:31PM 39.2675 -121.3292 163° South 422 486 39,000  Level Oakland Center
01:32PM 39.1547 -121.2861 164° South 423 487 39,000  Level Oakland Center
01:33PM 39.0414 -121.2417 163° South 423 487 39,000  Level Oakland Center
01:34PM 38.9289 -121.1978 163° South 422 486 39,000  Level Oakland Center
01:35PM 38.7936 -121.1447 163° South 423 487 39,000 -60 Level Oakland Center
01:36PM 38.6822 -121.1053 165° South 412 474 38,900 -540 Descending Oakland Center
01:37PM 38.5661 -121.0944 176° South 408 470 37,900 -960 Descending Oakland Center
01:38PM 38.4556 -121.0569 165° South 403 464 37,000 -480 Descending Oakland Center
01:39PM 38.3469 -121.0142 163° South 404 465 37,000  Level Oakland Center
01:40PM 38.2353 -120.9703 163° South 415 478 37,000  Level Oakland Center
01:42PM 38.1211 -120.9250 163° South 427 491 37,000  Level Oakland Center
01:43PM 38.0061 -120.8800 163° South 431 496 37,000  Level Oakland Center
01:44PM 37.8908 -120.8350 163° South 430 495 37,000  Level Oakland Center
01:45PM 37.7775 -120.7900 163° South 428 493 37,000  Level Oakland Center
01:46PM 37.6644 -120.7453 163° South 426 490 37,000  Level Oakland Center
01:47PM 37.5517 -120.7053 164° South 421 484 37,000  Level Oakland Center
01:48PM 37.4389 -120.6597 162° South 424 488 37,000  Level Oakland Center
01:49PM 37.3036 -120.6083 163° South 422 486 37,000  Level Oakland Center
01:50PM 37.1914 -120.5653 163° South 422 486 37,000  Level Oakland Center
01:51PM 37.0792 -120.5225 163° South 421 484 37,000  Level Oakland Center
01:52PM 36.9692 -120.4794 163° South 415 478 37,000  Level Oakland Center
01:53PM 36.8572 -120.4358 163° South 419 482 37,000  Level Oakland Center
01:54PM 36.7447 -120.3942 163° South 415 478 37,000  Level Oakland Center
01:55PM 36.6328 -120.3511 163° South 418 481 37,000  Level Oakland Center
01:56PM 36.5211 -120.3081 163° South 419 482 37,000 -120 Level Oakland Center
01:57PM 36.4089 -120.2644 163° South 421 484 36,800 -1,080 Descending Oakland Center
01:58PM 36.2967 -120.2242 164° South 419 482 34,800 -1,860 Descending Oakland Center
01:59PM 36.1675 -120.2003 172° South 391 450 33,000 -900 Descending Oakland Center
02:00PM 36.0567 -120.1994 180° South 395 455 33,000  Level Oakland Center
02:01PM 35.9425 -120.1753 170° South 420 483 33,000 -780 Level Oakland Center
02:02PM 35.8331 -120.1042 152° Southeast 440 506 31,500 -1,020 Descending Oakland Center
02:03PM 35.7242 -120.0311 151° Southeast 442 509 31,000 -480 Descending Oakland Center
02:04PM 35.6164 -119.9586 151° Southeast 438 504 30,600 -1,080 Descending Oakland Center
02:05PM 35.5553 -119.9075 146° Southeast 439 505 29,300 -2,040 Descending Los Angeles Center
02:06PM 35.4542 -119.8231 146° Southeast 436 502 27,300 -1,980 Descending Los Angeles Center
02:07PM 35.3531 -119.7400 146° Southeast 434 499 25,300 -1,620 Descending Los Angeles Center
02:08PM 35.2283 -119.6536 150° Southeast 424 488 24,000 -660 Descending Los Angeles Center
02:09PM 35.1194 -119.5939 156° South 425 489 24,000 -120 Level Los Angeles Center
02:10PM 35.0128 -119.5342 155° Southeast 422 486 23,800 -1,200 Descending Los Angeles Center
02:11PM 34.9069 -119.4744 155° Southeast 418 481 21,600 -2,100 Descending Los Angeles Center
02:12PM 34.8044 -119.4189 156° South 407 468 19,500 -1,920 Descending Los Angeles Center
02:13PM 34.7053 -119.3628 155° Southeast 396 456 17,600 -1,980 Descending Los Angeles Center
02:14PM 34.6022 -119.3078 156° South 387 445 15,400 -2,100 Descending Los Angeles Center
02:15PM 34.5139 -119.2617 157° South 357 411 13,300 -2,340 Descending Los Angeles Center
02:16PM 34.4597 -119.2233 150° Southeast 323 372 11,800 -2,460 Descending Los Angeles Center
02:16PM 34.4161 -119.2089 165° South 327 376 10,800 -1,680 Descending Los Angeles Center
02:17PM 34.3461 -119.1650 153° Southeast 291 335 9,300 -1,500 Descending Los Angeles Center
02:18PM 34.2750 -119.1292 157° South 279 321 7,700 -1,620 Descending Los Angeles Center
02:19PM 34.2056 -119.0917 156° South 273 314 6,000 -1,320 Descending Los Angeles Center
02:20PM 34.1572 -119.0336 135° Southeast 242 278 5,000 -540 Descending Los Angeles Center
02:21PM 34.1497 -118.9639 97° East 223 257 5,000 -300 Level Los Angeles Center
02:22PM 34.1592 -118.8775 82° East 215 247 4,400 -480 Descending Los Angeles Center
02:23PM 34.1931 -118.8472 36° Northeast 211 243 4,100 -300 Descending Los Angeles Center
02:24PM 34.2311 -118.8981 312° West 209 241 3,900 -660 Descending Los Angeles Center
02:25PM 34.2206 -118.9678 260° West 206 237 2,800 -960 Descending Los Angeles Center
02:26PM 34.2175 -119.0197 266° West 201 231 2,000 -1,200 Descending Los Angeles Center
02:27PM 34.2125 -119.0636 262° West 126 145 400 -1,500 Descending Los Angeles Center
02:29PM 34.2000 -119.0833 298° West  Level FlightAware Approximate
02:36PM 34.2137 -119.0944 298° West  Level Estimated